Time;durP1;ratioP1;P1;durP2;ratioP2;P2;SDS_P1;SDS_P2;PMS_P1;PMS_P2;Temp;Humidity;BMP_temperature;BMP_pressure;BME280_temperature;BME280_humidity;BME280_pressure;Samples;Min_cycle;Max_cycle;Signal;HPM_P1;HPM_P2
2023/08/19 00:01:56;;;;;;;3.37;3.07;;;25.20;99.90;;;25.86;73.33;100354.94;4974527;28;20698;-61
2023/08/19 00:04:23;;;;;;;2.83;2.63;;;25.20;99.90;;;25.87;73.55;100352.06;4979526;28;20707;-63
2023/08/19 00:06:50;;;;;;;2.23;2.13;;;25.20;99.90;;;25.83;74.23;100350.03;4975223;28;21090;-65
2023/08/19 00:09:16;;;;;;;3.67;2.33;;;25.20;99.90;;;25.83;74.79;100350.03;4974575;28;20730;-63
2023/08/19 00:11:43;;;;;;;3.57;3.27;;;25.20;99.90;;;25.79;74.47;100348.84;4972262;28;20741;-64
2023/08/19 00:14:10;;;;;;;3.53;3.23;;;25.20;99.90;;;25.79;74.67;100352.31;4973230;28;20722;-64
2023/08/19 00:16:37;;;;;;;5.43;2.90;;;25.10;99.90;;;25.74;74.74;100340.63;4971058;28;20635;-64
2023/08/19 00:19:05;;;;;;;2.87;2.60;;;25.10;99.90;;;25.70;75.31;100342.94;4968554;28;20670;-63
2023/08/19 00:21:32;;;;;;;2.97;2.53;;;25.10;99.90;;;25.63;75.53;100342.13;4971158;28;20647;-64
2023/08/19 00:23:59;;;;;;;4.30;2.73;;;25.00;99.90;;;25.58;74.96;100333.94;4970235;28;20639;-63
2023/08/19 00:26:26;;;;;;;2.87;2.67;;;25.00;99.90;;;25.56;75.14;100341.34;4988638;28;20686;-63
2023/08/19 00:28:53;;;;;;;2.90;2.70;;;24.90;99.90;;;25.55;75.10;100341.56;4972637;28;20635;-63
2023/08/19 00:31:20;;;;;;;2.57;2.40;;;24.90;99.90;;;25.55;74.96;100338.91;4972425;28;20750;-63
2023/08/19 00:33:47;;;;;;;3.17;2.87;;;24.90;99.90;;;25.52;74.98;100340.13;4971009;28;20657;-64
2023/08/19 00:36:14;;;;;;;3.70;3.40;;;24.90;99.90;;;25.51;74.85;100345.72;4971388;28;20660;-64
2023/08/19 00:38:41;;;;;;;8.00;3.13;;;24.80;99.90;;;25.51;74.55;100346.53;4971688;28;20635;-65
2023/08/19 00:41:08;;;;;;;3.83;3.40;;;24.90;99.90;;;25.50;74.22;100344.88;4973269;28;20682;-64
2023/08/19 00:43:36;;;;;;;4.00;2.63;;;24.90;99.90;;;25.50;74.25;100346.72;4973285;28;20630;-64
2023/08/19 00:46:03;;;;;;;3.47;3.00;;;24.90;99.90;;;25.49;74.11;100345.91;4971194;28;20667;-65
2023/08/19 00:48:30;;;;;;;4.03;3.17;;;24.90;99.90;;;25.52;73.85;100353.50;4974045;28;21206;-62
2023/08/19 00:50:58;;;;;;;4.40;3.20;;;24.80;99.90;;;25.51;74.23;100353.72;4971222;28;20682;-64
2023/08/19 00:53:26;;;;;;;4.87;2.90;;;24.80;99.90;;;25.51;74.36;100362.56;4975115;28;20731;-63
2023/08/19 00:55:53;;;;;;;4.23;2.93;;;24.90;99.90;;;25.48;74.11;100360.31;4971117;28;20631;-64
2023/08/19 00:58:20;;;;;;;3.30;3.10;;;24.80;99.90;;;25.49;74.22;100361.94;4985289;28;20619;-64
2023/08/19 01:00:48;;;;;;;3.50;3.20;;;24.90;99.90;;;25.50;74.33;100354.75;4968711;28;20711;-64
2023/08/19 01:03:15;;;;;;;3.00;2.80;;;24.80;99.90;;;25.49;73.93;100351.25;4980391;28;20655;-63
2023/08/19 01:06:25;;;;;;;3.03;2.83;;;24.90;99.90;;;25.48;73.93;100352.28;4970502;28;20631;-65
2023/08/19 01:09:12;;;;;;;3.10;2.80;;;24.80;99.90;;;25.48;74.06;100352.28;4968215;28;21336;-65
2023/08/19 01:12:01;;;;;;;3.03;2.77;;;24.80;99.90;;;25.45;74.11;100350.03;4985914;28;20647;-64
2023/08/19 01:15:03;;;;;;;2.83;2.50;;;24.80;99.90;;;25.45;74.33;100339.34;4979477;28;20635;-64
2023/08/19 01:17:33;;;;;;;2.47;2.27;;;24.80;99.90;;;25.45;74.36;100346.56;4962008;28;20647;-65
2023/08/19 01:20:00;;;;;;;2.87;2.60;;;24.80;99.90;;;25.40;74.37;100342.66;4947307;28;20678;-64
2023/08/19 01:22:45;;;;;;;6.40;3.17;;;24.70;99.90;;;25.38;74.60;100338.56;4967784;28;20703;-64
2023/08/19 01:25:13;;;;;;;4.97;2.67;;;24.70;99.90;;;25.37;74.67;100336.91;4982372;28;20627;-63
2023/08/19 01:27:40;;;;;;;3.03;2.83;;;24.70;99.90;;;25.37;74.96;100335.06;4973183;28;21557;-67
2023/08/19 01:30:08;;;;;;;2.87;2.60;;;24.70;99.90;;;25.38;74.90;100338.56;4969944;28;21220;-63
2023/08/19 01:32:36;;;;;;;14.70;2.97;;;24.70;99.90;;;25.39;74.40;100340.16;4963692;28;20701;-64
2023/08/19 01:35:05;;;;;;;3.00;2.80;;;24.70;99.90;;;25.40;74.81;100349.84;4969487;28;20654;-65
2023/08/19 01:37:58;;;;;;;3.27;3.07;;;24.70;99.90;;;25.41;74.54;100348.78;4960577;28;20667;-63
2023/08/19 01:40:26;;;;;;;3.03;2.63;;;24.80;99.90;;;25.39;74.51;100345.50;4985880;28;20682;-64
2023/08/19 01:42:54;;;;;;;3.50;3.20;;;24.70;99.90;;;25.39;74.49;100343.66;4973760;28;20709;-63
2023/08/19 01:45:22;;;;;;;3.07;2.87;;;24.70;99.90;;;25.42;74.98;100338.97;4990566;28;20639;-64
2023/08/19 01:47:53;;;;;;;3.47;3.00;;;24.80;99.90;;;25.45;74.59;100336.69;4979278;28;20737;-64
2023/08/19 01:50:20;;;;;;;9.30;3.50;;;24.80;99.90;;;25.39;74.76;100338.31;4983068;28;20717;-64
2023/08/19 01:52:48;;;;;;;3.10;2.90;;;24.80;99.90;;;25.38;75.30;100333.22;4968689;28;20669;-63
2023/08/19 01:55:15;;;;;;;4.30;3.40;;;24.70;99.90;;;25.36;75.13;100338.75;4973579;28;21083;-64
2023/08/19 01:57:42;;;;;;;4.50;3.33;;;24.70;99.90;;;25.35;75.09;100341.63;4967683;28;20638;-63
2023/08/19 02:00:09;;;;;;;2.90;2.70;;;24.70;99.90;;;25.33;75.30;100341.03;4973566;28;20683;-66
2023/08/19 02:02:36;;;;;;;3.70;3.17;;;24.70;99.90;;;25.31;75.39;100341.25;4983972;28;20730;-63
2023/08/19 02:05:05;;;;;;;3.80;3.00;;;24.70;99.90;;;25.32;75.47;100339.41;4984939;28;21016;-63
2023/08/19 02:07:31;;;;;;;3.17;2.73;;;24.70;99.90;;;25.30;75.01;100344.09;4967836;28;21018;-64
2023/08/19 02:09:59;;;;;;;3.53;3.20;;;24.70;99.90;;;25.30;75.17;100344.09;4984656;28;20631;-65
2023/08/19 02:12:26;;;;;;;6.30;3.30;;;24.70;99.90;;;25.29;75.14;100350.50;4965856;28;20678;-65
2023/08/19 02:14:53;;;;;;;3.07;2.87;;;24.60;99.90;;;25.29;75.03;100356.66;4971144;28;20725;-62
2023/08/19 02:17:20;;;;;;;3.83;3.00;;;24.60;99.90;;;25.27;74.98;100358.72;4971993;28;21267;-64
2023/08/19 02:19:46;;;;;;;3.50;2.87;;;24.70;99.90;;;25.24;75.43;100353.81;4973221;28;20739;-62
2023/08/19 02:22:14;;;;;;;5.03;2.47;;;24.60;99.90;;;25.23;75.09;100362.03;4967823;28;20632;-64
2023/08/19 02:24:41;;;;;;;3.93;3.07;;;24.60;99.90;;;25.17;75.22;100368.22;4971800;28;21143;-62
2023/08/19 02:27:07;;;;;;;2.93;2.73;;;24.60;99.90;;;25.13;75.43;100354.44;4972614;28;20734;-62
2023/08/19 02:29:35;;;;;;;4.10;3.17;;;24.50;99.90;;;25.10;75.47;100364.75;4974815;28;20669;-63
2023/08/19 02:32:02;;;;;;;3.50;3.10;;;24.50;99.90;;;25.08;76.10;100370.31;4973674;28;20654;-65
2023/08/19 02:34:29;;;;;;;4.07;3.13;;;24.50;99.90;;;25.03;75.98;100367.44;4972479;28;20627;-64
2023/08/19 02:36:56;;;;;;;4.40;3.40;;;24.40;99.90;;;25.02;76.00;100371.13;4974893;28;21235;-63
2023/08/19 02:39:23;;;;;;;4.30;3.07;;;24.40;99.90;;;25.00;76.24;100367.03;4973599;28;21106;-64
2023/08/19 02:41:50;;;;;;;3.30;3.07;;;24.40;99.90;;;24.99;76.24;100368.88;4974457;28;20674;-65
2023/08/19 02:44:17;;;;;;;3.10;2.90;;;24.40;99.90;;;24.97;76.23;100362.94;4978505;28;20759;-64
2023/08/19 02:46:44;;;;;;;3.50;3.17;;;24.40;99.90;;;24.96;76.86;100363.97;4996963;28;20641;-63
2023/08/19 02:49:10;;;;;;;3.57;3.23;;;24.30;99.90;;;24.95;77.22;100374.84;4976079;28;21000;-63
2023/08/19 02:51:37;;;;;;;5.30;3.33;;;24.30;99.90;;;24.97;76.94;100372.78;4973565;28;20741;-63
2023/08/19 02:54:05;;;;;;;3.87;3.23;;;24.40;99.90;;;24.96;76.78;100377.31;4974389;28;20651;-64
2023/08/19 02:56:32;;;;;;;3.20;2.90;;;24.40;99.90;;;24.97;76.10;100378.13;4973677;28;20707;-64
2023/08/19 02:58:58;;;;;;;3.67;3.07;;;24.40;99.90;;;24.99;76.18;100370.72;4973783;28;20663;-65
2023/08/19 03:01:25;;;;;;;3.33;3.10;;;24.40;99.90;;;25.00;76.33;100377.72;4986015;28;20674;-63
2023/08/19 03:03:52;;;;;;;2.93;2.73;;;24.40;99.90;;;24.97;76.36;100370.13;4984453;28;20645;-64
2023/08/19 03:06:19;;;;;;;4.00;2.97;;;24.40;99.90;;;24.95;77.12;100359.66;4967292;28;20645;-64
2023/08/19 03:08:46;;;;;;;4.77;3.67;;;24.40;99.90;;;24.95;76.88;100372.19;4973568;28;21047;-64
2023/08/19 03:11:13;;;;;;;3.30;3.10;;;24.30;99.90;;;24.97;77.54;100367.44;4977554;28;20745;-63
2023/08/19 03:13:40;;;;;;;4.37;3.00;;;24.30;99.90;;;24.95;77.54;100372.19;4971327;28;20682;-64
2023/08/19 03:16:07;;;;;;;3.87;3.57;;;24.30;99.90;;;24.95;77.27;100374.84;4966177;28;20697;-65
2023/08/19 03:18:34;;;;;;;3.50;3.00;;;24.30;99.90;;;24.97;77.60;100370.94;4967516;28;20639;-64
2023/08/19 03:21:01;;;;;;;3.90;3.57;;;24.40;99.90;;;24.98;77.68;100374.44;4970775;28;20714;-64
2023/08/19 03:23:28;;;;;;;3.80;3.40;;;24.40;99.90;;;24.97;77.82;100376.28;4972269;28;20690;-62
2023/08/19 03:25:56;;;;;;;3.67;3.37;;;24.40;99.90;;;24.96;77.43;100361.28;4972715;28;20733;-63
2023/08/19 03:28:23;;;;;;;3.50;3.20;;;24.30;99.90;;;24.96;77.34;100365.81;4971144;28;20743;-64
2023/08/19 03:30:50;;;;;;;4.90;3.37;;;24.40;99.90;;;24.96;77.38;100361.28;4969272;28;20666;-62
2023/08/19 03:33:17;;;;;;;3.23;3.00;;;24.40;99.90;;;24.95;77.89;100364.19;4968479;28;20643;-62
2023/08/19 03:35:44;;;;;;;3.70;3.23;;;24.30;99.90;;;24.97;78.24;100354.94;4972862;28;20635;-64
2023/08/19 03:38:13;;;;;;;5.20;3.57;;;24.40;99.90;;;24.96;77.70;100363.16;4968765;28;20657;-63
2023/08/19 03:40:40;;;;;;;4.10;3.30;;;24.40;99.90;;;24.94;77.91;100367.84;4964555;28;20671;-62
2023/08/19 03:43:10;;;;;;;4.73;3.37;;;24.30;99.90;;;24.92;78.17;100364.56;4957106;28;21242;-64
2023/08/19 03:45:37;;;;;;;3.37;3.07;;;24.30;99.90;;;24.89;78.13;100375.69;4962151;28;20742;-63
2023/08/19 03:48:04;;;;;;;3.80;3.43;;;24.30;99.90;;;24.86;77.67;100376.09;4960496;28;20645;-63
2023/08/19 03:50:31;;;;;;;3.77;3.37;;;24.20;99.90;;;24.84;78.20;100375.50;4967265;28;20670;-63
2023/08/19 03:52:58;;;;;;;3.83;3.50;;;24.20;99.90;;;24.82;77.84;100377.53;4979477;28;20638;-63
2023/08/19 03:55:25;;;;;;;2.90;2.70;;;24.20;99.90;;;24.81;78.54;100373.25;4972469;28;20671;-64
2023/08/19 03:57:52;;;;;;;3.07;2.87;;;24.20;99.90;;;24.79;78.34;100369.97;4988826;28;20645;-64
2023/08/19 04:00:19;;;;;;;3.37;3.07;;;24.20;99.90;;;24.75;78.81;100371.38;4986713;28;21056;-63
2023/08/19 04:02:46;;;;;;;5.50;3.17;;;24.10;99.90;;;24.70;79.12;100363.19;4968429;28;20649;-64
2023/08/19 04:05:13;;;;;;;5.20;3.40;;;24.10;99.90;;;24.68;79.26;100369.53;4971386;28;21008;-63
2023/08/19 04:07:40;;;;;;;5.53;3.80;;;24.10;99.90;;;24.66;79.49;100374.25;4969900;28;20718;-63
2023/08/19 04:10:08;;;;;;;4.67;3.17;;;24.00;99.90;;;24.67;79.83;100378.56;4973712;28;20741;-64
2023/08/19 04:12:35;;;;;;;2.90;2.70;;;24.00;99.90;;;24.64;80.16;100380.81;4986440;28;21264;-65
2023/08/19 04:15:03;;;;;;;8.07;3.20;;;24.00;99.90;;;24.61;79.84;100375.91;4972643;28;20738;-62
2023/08/19 04:17:34;;;;;;;4.97;3.23;;;24.00;99.90;;;24.56;79.91;100371.19;4972088;28;20695;-64
2023/08/19 04:20:08;;;;;;;3.47;3.20;;;24.00;99.90;;;24.54;80.40;100367.91;4975302;28;20678;-64
2023/08/19 04:22:36;;;;;;;3.73;3.17;;;24.00;99.90;;;24.52;80.28;100364.63;4970856;28;20639;-64
2023/08/19 04:25:04;;;;;;;4.90;3.63;;;23.90;99.90;;;24.52;80.62;100363.81;4976086;28;21014;-65
2023/08/19 04:27:31;;;;;;;5.03;3.53;;;23.90;99.90;;;24.52;80.22;100369.16;4972206;28;20730;-63
2023/08/19 04:29:58;;;;;;;4.20;3.50;;;23.90;99.90;;;24.52;80.81;100363.81;4963289;28;20710;-63
2023/08/19 04:32:25;;;;;;;3.33;3.03;;;23.90;99.90;;;24.52;80.62;100364.63;4972486;28;20693;-64
2023/08/19 04:34:52;;;;;;;4.57;3.30;;;23.90;99.90;;;24.52;80.12;100363.81;4972372;28;20657;-65
2023/08/19 04:37:19;;;;;;;3.70;3.30;;;23.90;99.90;;;24.55;80.04;100374.88;4967367;28;20693;-64
2023/08/19 04:39:46;;;;;;;7.43;3.57;;;24.00;99.90;;;24.53;80.52;100376.13;4972503;28;21212;-64
2023/08/19 04:42:13;;;;;;;3.53;3.23;;;23.90;99.90;;;24.53;80.21;100378.81;4972585;28;20655;-65
2023/08/19 04:44:40;;;;;;;3.07;2.87;;;23.90;99.90;;;24.54;80.53;100372.41;4971905;28;21062;-63
2023/08/19 04:47:07;;;;;;;2.97;2.77;;;23.90;99.90;;;24.55;80.86;100374.88;4974888;28;20658;-63
2023/08/19 04:49:34;;;;;;;4.10;3.20;;;24.00;99.90;;;24.60;80.71;100369.75;4972117;28;20722;-64
2023/08/19 04:52:03;;;;;;;3.17;2.87;;;24.00;99.90;;;24.68;80.23;100395.41;4975421;28;21318;-64
2023/08/19 04:54:30;;;;;;;10.83;3.93;;;24.10;99.90;;;24.76;80.00;100387.22;4970582;28;20714;-63
2023/08/19 04:56:57;;;;;;;3.97;3.57;;;24.10;99.90;;;24.89;79.38;100399.72;4981324;28;20663;-64
2023/08/19 04:59:24;;;;;;;4.70;3.80;;;24.30;99.90;;;25.01;79.04;100401.53;4962688;28;20725;-64
2023/08/19 05:01:51;;;;;;;3.43;3.13;;;24.40;99.90;;;25.15;77.91;100403.13;4967006;28;20683;-63
2023/08/19 05:04:18;;;;;;;3.77;3.00;;;24.60;99.90;;;25.29;76.49;100406.56;4970149;28;21024;-64
2023/08/19 05:06:45;;;;;;;3.90;3.50;;;24.70;99.90;;;25.45;75.75;100392.78;4969860;28;20628;-64
2023/08/19 05:09:13;;;;;;;3.87;3.53;;;24.80;99.90;;;25.60;74.66;100389.84;4971873;28;20619;-63
2023/08/19 05:11:40;;;;;;;3.30;3.00;;;25.00;99.90;;;25.78;73.97;100393.44;4969572;28;20673;-63
2023/08/19 05:14:07;;;;;;;2.73;2.53;;;25.10;99.90;;;25.99;72.71;100385.06;4970687;28;20718;-63
2023/08/19 05:16:34;;;;;;;4.20;3.30;;;25.30;99.90;;;26.06;70.43;100393.88;4969832;28;20643;-62
2023/08/19 05:19:21;;;;;;;4.60;3.30;;;25.40;99.90;;;26.03;69.91;100391.63;4971395;28;20699;-64
2023/08/19 05:21:50;;;;;;;2.90;2.63;;;25.40;99.90;;;26.07;69.99;100402.69;4970640;28;20686;-64
2023/08/19 05:24:18;;;;;;;3.20;2.90;;;25.40;99.90;;;26.28;69.91;100404.25;4986098;28;20669;-64
2023/08/19 05:26:45;;;;;;;3.67;3.30;;;25.60;99.90;;;26.54;69.15;100410.19;4968426;28;21193;-63
2023/08/19 05:29:13;;;;;;;3.80;3.50;;;25.90;99.90;;;26.85;67.48;100412.00;4962452;28;20688;-63
2023/08/19 05:31:40;;;;;;;3.20;2.93;;;26.20;99.90;;;27.18;65.92;100417.00;4965763;28;20658;-66
2023/08/19 05:34:08;;;;;;;2.90;2.60;;;26.40;99.90;;;27.57;64.14;100414.72;4963710;28;21129;-67
2023/08/19 05:36:35;;;;;;;2.87;2.53;;;26.80;99.90;;;27.96;61.40;100417.91;4989284;28;20710;-68
2023/08/19 05:39:03;;;;;;;2.57;2.37;;;27.20;99.90;;;28.15;60.66;100414.94;4970265;28;20635;-68
2023/08/19 05:41:30;;;;;;;2.50;2.30;;;27.40;99.90;;;28.37;59.14;100420.56;4987474;28;21416;-68
2023/08/19 05:43:57;;;;;;;2.33;2.23;;;27.70;99.90;;;28.62;58.30;100420.41;4974102;28;21194;-68
2023/08/19 05:46:27;;;;;;;1.93;1.87;;;27.90;99.90;;;28.88;57.83;100431.50;4991514;28;20682;-68
2023/08/19 05:48:54;;;;;;;4.50;2.37;;;28.10;99.90;;;29.16;56.21;100433.50;4965817;28;20694;-67
2023/08/19 05:51:21;;;;;;;2.27;2.17;;;28.40;99.90;;;29.46;55.62;100436.00;4965203;28;21255;-69
2023/08/19 05:53:48;;;;;;;3.57;2.47;;;28.70;99.90;;;29.80;54.61;100446.66;4967626;28;20698;-69
2023/08/19 05:56:15;;;;;;;3.93;2.50;;;29.00;99.90;;;30.23;54.03;100438.03;4987892;28;20742;-67
2023/08/19 05:58:42;;;;;;;2.47;2.27;;;29.40;99.90;;;30.59;52.21;100434.91;4968602;28;20642;-67
2023/08/19 06:01:09;;;;;;;2.33;2.23;;;29.80;99.90;;;30.96;51.59;100437.91;4975805;28;21582;-70
2023/08/19 06:03:36;;;;;;;3.20;1.97;;;30.20;99.90;;;31.32;50.01;100444.59;4974482;28;20639;-69
2023/08/19 06:06:06;;;;;;;3.37;2.70;;;30.50;99.90;;;31.72;49.10;100452.38;4973781;28;20635;-69
2023/08/19 06:08:34;;;;;;;3.83;2.43;;;30.80;99.90;;;32.08;48.45;100449.84;4974280;28;20615;-69
2023/08/19 06:11:05;;;;;;;2.37;2.17;;;31.30;99.90;;;32.35;47.37;100454.41;4971545;28;20670;-71
2023/08/19 06:13:36;;;;;;;2.33;2.13;;;31.60;99.90;;;32.69;46.45;100458.50;4974897;28;20629;-68
2023/08/19 06:16:04;;;;;;;2.60;2.43;;;32.00;99.90;;;33.10;45.88;100465.81;4992852;28;20636;-68
2023/08/19 06:18:32;;;;;;;2.50;2.30;;;32.30;99.20;;;33.40;45.05;100471.38;4971671;28;20650;-69
2023/08/19 06:21:00;;;;;;;3.10;2.90;;;32.70;98.20;;;33.77;44.51;100467.75;4972509;28;20685;-68
2023/08/19 06:23:27;;;;;;;2.80;2.60;;;33.00;97.80;;;34.24;43.92;100474.66;4989192;28;21206;-66
2023/08/19 06:25:54;;;;;;;4.93;3.30;;;33.50;97.10;;;34.74;42.42;100475.75;4991157;28;20645;-68
2023/08/19 06:28:21;;;;;;;2.57;2.40;;;34.00;96.40;;;35.20;41.95;100481.94;4985690;28;20666;-67
2023/08/19 06:30:50;;;;;;;5.30;2.30;;;34.40;95.10;;;35.68;40.70;100478.53;4978529;28;21022;-69
2023/08/19 06:33:18;;;;;;;2.97;2.10;;;34.90;93.60;;;36.18;40.03;100482.88;4987439;28;20638;-70
2023/08/19 06:35:48;;;;;;;2.27;2.17;;;35.40;92.40;;;36.63;38.94;100495.34;4979637;28;20688;-68
2023/08/19 06:38:26;;;;;;;2.90;2.70;;;35.80;91.20;;;36.97;38.05;100494.19;4978042;28;20681;-69
2023/08/19 06:41:09;;;;;;;3.23;2.93;;;36.20;90.10;;;37.28;37.65;100498.25;4996782;28;20762;-69
2023/08/19 06:43:39;;;;;;;2.50;2.23;;;36.50;87.70;;;37.45;37.08;100502.41;4980284;28;20626;-68
2023/08/19 06:46:07;;;;;;;2.93;2.73;;;36.70;86.20;;;37.69;36.76;100503.22;4988052;28;20644;-68
2023/08/19 06:48:36;;;;;;;5.73;2.40;;;37.00;84.10;;;38.01;36.47;100512.34;4986495;28;20658;-69
2023/08/19 06:51:03;;;;;;;2.20;2.10;;;37.30;82.80;;;38.26;35.95;100502.19;4977700;28;21055;-68
2023/08/19 06:53:31;;;;;;;2.30;2.20;;;37.40;81.40;;;38.36;35.52;100510.19;4975455;28;20634;-68
2023/08/19 06:56:09;;;;;;;2.50;2.40;;;37.50;80.50;;;38.39;35.64;100506.88;4970602;28;20653;-70
2023/08/19 06:58:42;;;;;;;2.30;2.20;;;37.40;79.20;;;38.24;36.15;100507.94;4971187;28;20715;-68
2023/08/19 07:01:18;;;;;;;2.20;2.10;;;37.30;79.00;;;38.11;36.06;100516.00;4971836;28;20678;-68
2023/08/19 07:03:45;;;;;;;2.57;2.47;;;37.10;78.60;;;38.00;35.58;100499.00;4973708;28;20653;-68
2023/08/19 07:06:17;;;;;;;2.57;2.33;;;37.00;78.30;;;37.98;35.68;100504.75;4992050;28;20623;-70
2023/08/19 07:08:45;;;;;;;2.57;2.33;;;37.00;78.00;;;38.00;35.70;100497.09;4970063;28;20639;-69
2023/08/19 07:11:14;;;;;;;2.90;2.70;;;37.00;77.70;;;37.96;36.15;100498.78;4979536;28;21119;-71
2023/08/19 07:13:43;;;;;;;3.03;2.70;;;37.00;77.40;;;38.09;36.22;100508.13;4987486;28;20631;-68
2023/08/19 07:16:12;;;;;;;2.10;2.00;;;37.20;77.30;;;38.25;36.04;100506.81;4961796;28;20735;-68
2023/08/19 07:18:41;;;;;;;3.23;2.30;;;37.40;76.90;;;38.31;35.87;100508.38;4970614;28;20631;-69
2023/08/19 07:21:11;;;;;;;3.60;2.60;;;37.50;75.90;;;37.88;36.44;100513.06;4986874;28;20698;-69
2023/08/19 07:23:41;;;;;;;4.50;2.73;;;37.20;75.70;;;37.02;37.14;100515.09;4984775;28;20702;-69
2023/08/19 07:26:09;;;;;;;2.60;2.40;;;36.50;76.20;;;36.36;38.50;100512.09;4971512;28;20643;-69
2023/08/19 07:28:36;;;;;;;2.63;2.43;;;35.80;77.40;;;35.79;39.04;100512.69;4972320;28;20638;-69
2023/08/19 07:31:04;;;;;;;3.07;2.50;;;35.20;78.10;;;35.25;40.30;100522.59;4971073;28;20797;-69
2023/08/19 07:33:31;;;;;;;2.60;2.40;;;34.60;79.10;;;35.24;40.21;100518.28;4966004;28;20646;-69
2023/08/19 07:35:58;;;;;;;2.50;2.40;;;34.50;80.20;;;35.59;40.06;100512.75;4971398;28;20633;-70
2023/08/19 07:38:25;;;;;;;2.37;2.27;;;34.80;80.20;;;36.12;38.61;100514.69;4987277;28;20654;-67
2023/08/19 07:40:52;;;;;;;2.80;2.37;;;35.30;79.00;;;36.27;37.56;100513.81;4970969;28;21430;-69
2023/08/19 07:43:19;;;;;;;2.37;2.27;;;35.50;77.20;;;36.10;38.22;100518.81;4987412;28;20627;-69
2023/08/19 07:45:46;;;;;;;2.67;2.50;;;35.30;77.30;;;36.32;37.37;100516.47;4986710;28;20650;-72
2023/08/19 07:48:13;;;;;;;2.70;2.50;;;35.50;76.60;;;36.75;36.78;100514.78;4988231;28;21185;-69
2023/08/19 07:50:40;;;;;;;2.70;2.50;;;35.80;76.10;;;37.07;36.23;100512.34;4971003;28;21217;-69
2023/08/19 07:53:07;;;;;;;5.60;2.90;;;36.20;75.50;;;37.19;35.97;100515.47;4985796;28;20765;-68
2023/08/19 07:55:34;;;;;;;3.23;2.93;;;36.40;75.10;;;37.44;36.40;100512.50;4970835;28;20635;-71
2023/08/19 07:58:01;;;;;;;3.00;2.80;;;36.70;74.80;;;37.59;35.65;100520.47;4969249;28;20671;-70
2023/08/19 08:00:28;;;;;;;3.07;2.80;;;36.80;74.50;;;37.65;36.48;100522.06;4987149;28;20710;-71
2023/08/19 08:02:55;;;;;;;3.07;2.87;;;36.90;74.50;;;37.77;36.44;100525.16;4972198;28;20702;-68
2023/08/19 08:05:22;;;;;;;3.43;3.23;;;37.10;74.60;;;37.81;36.78;100523.50;4968083;28;20725;-69
2023/08/19 08:07:49;;;;;;;3.40;3.20;;;37.20;74.80;;;38.04;36.72;100532.72;4970663;28;20990;-69
2023/08/19 08:10:16;;;;;;;2.60;2.50;;;37.30;74.50;;;38.24;36.61;100534.34;4996760;28;20676;-69
2023/08/19 08:12:43;;;;;;;4.10;3.00;;;37.50;74.60;;;38.33;36.20;100538.06;4970865;28;20651;-69
2023/08/19 08:15:12;;;;;;;4.23;3.93;;;37.60;74.00;;;38.22;36.33;100533.81;4969982;28;20670;-66
2023/08/19 08:17:39;;;;;;;3.63;3.40;;;37.60;73.70;;;37.90;36.42;100532.66;4964431;28;21019;-69
2023/08/19 08:20:07;;;;;;;4.13;3.50;;;37.30;73.90;;;37.76;37.29;100523.53;4984194;28;21042;-70
2023/08/19 08:22:35;;;;;;;4.10;3.80;;;37.10;74.90;;;37.60;38.05;100532.19;4970488;28;20671;-69
2023/08/19 08:25:06;;;;;;;3.83;3.50;;;36.90;75.60;;;37.07;38.33;100528.66;4969471;28;20642;-68
2023/08/19 08:27:34;;;;;;;3.80;3.50;;;36.40;75.70;;;36.61;39.29;100530.94;4988010;28;20635;-68
2023/08/19 08:30:01;;;;;;;4.73;3.50;;;35.90;76.90;;;36.35;39.96;100524.88;4981172;28;20742;-67
2023/08/19 08:32:28;;;;;;;3.73;3.43;;;35.60;78.00;;;36.25;39.88;100527.66;4971130;28;20702;-68
2023/08/19 08:34:55;;;;;;;4.17;3.83;;;35.50;78.50;;;36.00;40.81;100535.13;4970188;28;20693;-70
2023/08/19 08:37:22;;;;;;;4.07;3.73;;;35.20;78.80;;;35.79;41.28;100526.25;4970287;28;20746;-69
2023/08/19 08:39:49;;;;;;;3.93;3.63;;;35.00;79.50;;;35.51;42.24;100533.16;4971248;28;21098;-72
2023/08/19 08:42:17;;;;;;;4.03;3.73;;;34.80;80.50;;;35.24;42.40;100534.56;4984802;28;20671;-68
2023/08/19 08:44:50;;;;;;;6.77;3.47;;;34.50;80.90;;;34.86;43.04;100527.81;4970267;28;21216;-68
2023/08/19 08:47:19;;;;;;;4.20;3.80;;;34.10;81.80;;;34.54;44.10;100533.50;4969145;28;21155;-68
2023/08/19 08:49:47;;;;;;;4.20;3.80;;;33.80;82.80;;;34.29;43.87;100541.53;4973541;28;21267;-68
2023/08/19 08:52:15;;;;;;;4.00;3.67;;;33.50;83.00;;;34.08;44.60;100539.88;4989327;28;20630;-69
2023/08/19 08:54:43;;;;;;;5.43;4.20;;;33.40;83.80;;;33.96;44.91;100539.28;4983501;28;21115;-71
2023/08/19 08:57:10;;;;;;;4.97;4.47;;;33.20;84.90;;;33.93;45.37;100535.19;4951940;28;20627;-70
2023/08/19 08:59:37;;;;;;;4.10;3.70;;;33.10;85.00;;;33.84;44.77;100536.00;4968589;28;20643;-68
2023/08/19 09:02:06;;;;;;;3.63;3.33;;;33.10;84.90;;;33.72;45.73;100541.63;4985075;28;20770;-68
2023/08/19 09:04:34;;;;;;;3.50;3.20;;;32.90;85.60;;;33.55;46.16;100531.00;4982846;28;21220;-69
2023/08/19 09:07:08;;;;;;;4.20;3.80;;;32.80;86.00;;;33.36;46.32;100527.06;4984497;28;20658;-70
2023/08/19 09:09:40;;;;;;;4.07;3.70;;;32.60;86.70;;;33.21;47.00;100526.97;4983730;28;20652;-68
2023/08/19 09:12:12;;;;;;;3.40;3.10;;;32.50;87.70;;;33.02;47.57;100520.38;4986781;28;20649;-68
2023/08/19 09:14:43;;;;;;;9.97;3.77;;;32.30;88.70;;;32.89;47.61;100518.06;4983390;28;21236;-69
2023/08/19 09:17:16;;;;;;;3.57;3.37;;;32.10;89.50;;;32.75;48.95;100515.00;4985848;28;20678;-71
2023/08/19 09:19:43;;;;;;;3.83;3.40;;;32.00;89.90;;;32.60;48.82;100514.06;4958161;28;20646;-69
2023/08/19 09:22:16;;;;;;;7.73;3.67;;;31.90;90.10;;;32.52;49.13;100514.53;4969523;28;21534;-69
2023/08/19 09:24:44;;;;;;;3.57;3.27;;;31.70;90.50;;;32.44;49.46;100517.66;4967958;28;20631;-66
2023/08/19 09:27:11;;;;;;;4.90;3.60;;;31.70;90.80;;;32.33;50.22;100521.34;4970778;28;20627;-68
2023/08/19 09:29:50;;;;;;;5.80;4.30;;;31.60;91.10;;;32.26;50.70;100512.63;4968968;28;20634;-69
2023/08/19 09:32:26;;;;;;;4.30;3.87;;;31.50;91.50;;;32.17;50.91;100508.75;4979588;28;20637;-68
2023/08/19 09:35:08;;;;;;;4.20;3.90;;;31.40;91.90;;;32.08;50.95;100501.13;4988958;28;20635;-69
2023/08/19 09:37:36;;;;;;;4.40;4.00;;;31.30;92.20;;;32.02;51.86;100502.13;4965371;28;21005;-69
2023/08/19 09:40:08;;;;;;;3.97;3.57;;;31.30;92.50;;;32.03;51.50;100503.75;4974488;28;20634;-68
2023/08/19 09:42:35;;;;;;;4.57;4.17;;;31.30;93.00;;;32.03;52.17;100506.47;4988656;28;21543;-68
2023/08/19 09:45:04;;;;;;;3.93;3.60;;;31.30;93.20;;;32.04;52.05;100507.28;4969588;28;21220;-70
2023/08/19 09:47:45;;;;;;;4.60;4.20;;;31.20;93.40;;;32.08;51.87;100516.50;4974323;28;20631;-69
2023/08/19 09:50:12;;;;;;;6.13;3.97;;;31.30;93.20;;;32.10;52.40;100509.78;4970337;28;21447;-68
2023/08/19 09:52:40;;;;;;;4.40;3.77;;;31.30;93.60;;;32.11;51.77;100511.41;4959804;28;21030;-68
2023/08/19 09:55:07;;;;;;;4.63;4.03;;;31.40;93.60;;;32.12;51.62;100507.63;4986026;28;20722;-68
2023/08/19 09:57:34;;;;;;;4.67;4.23;;;31.30;93.70;;;32.16;52.20;100516.03;4972866;28;20706;-69
2023/08/19 10:00:06;;;;;;;4.00;3.70;;;31.40;93.80;;;32.17;51.62;100523.06;4984945;28;20659;-68
2023/08/19 10:02:35;;;;;;;10.10;4.30;;;31.40;93.80;;;32.12;51.60;100531.13;4974887;28;20733;-69
2023/08/19 10:05:03;;;;;;;3.87;3.47;;;31.40;93.70;;;32.08;51.97;100533.50;4970812;28;21220;-67
2023/08/19 10:07:32;;;;;;;4.70;4.20;;;31.30;93.90;;;32.07;51.92;100537.25;4968800;28;20643;-68
2023/08/19 10:10:04;;;;;;;4.70;4.20;;;31.30;94.20;;;32.06;52.36;100538.34;4966482;28;21034;-69
2023/08/19 10:12:40;;;;;;;4.43;4.03;;;31.30;94.30;;;32.09;52.50;100537.81;4972447;28;20695;-70
2023/08/19 10:15:12;;;;;;;4.47;3.93;;;31.30;94.50;;;32.11;52.88;100543.00;4970904;28;20698;-71
2023/08/19 10:17:44;;;;;;;7.33;3.53;;;31.30;94.90;;;32.12;52.93;100540.03;4985304;28;21474;-68
2023/08/19 10:20:13;;;;;;;5.90;5.30;;;31.30;95.20;;;32.14;52.95;100551.38;4984800;28;20678;-71